Time;durP1;ratioP1;P1;durP2;ratioP2;P2;SDS_P1;SDS_P2;PMS_P1;PMS_P2;Temp;Humidity;BMP_temperature;BMP_pressure;BME280_temperature;BME280_humidity;BME280_pressure;Samples;Min_cycle;Max_cycle;Signal;HPM_P1;HPM_P2
2021/09/11 18:43:50;;;;;;;12.25;4.55;;;;;;;22.77;38.98;99895.59;4906087;27;20089;-85
2021/09/11 18:46:18;;;;;;;10.85;4.65;;;;;;;22.66;39.35;99897.91;4293359;33;34046;-85
2021/09/11 18:48:47;;;;;;;10.65;4.72;;;;;;;22.53;39.43;99905.56;4317652;33;34831;-85
2021/09/11 18:51:27;;;;;;;11.98;4.22;;;;;;;22.58;39.32;99902.69;4316615;33;34806;-86
2021/09/11 18:54:33;;;;;;;8.23;3.80;;;;;;;22.50;39.64;99910.13;4309255;33;34249;-85
2021/09/11 18:57:03;;;;;;;9.30;3.92;;;;;;;22.40;39.54;99906.19;4318143;33;34102;-85
2021/09/11 19:00:01;;;;;;;7.93;4.10;;;;;;;22.39;38.89;99905.34;4305483;33;35067;-85
2021/09/11 19:03:10;;;;;;;5.85;4.12;;;;;;;22.39;38.98;99909.78;4309651;33;35609;-85
2021/09/11 19:07:00;;;;;;;9.00;4.10;;;;;;;22.31;39.11;99914.56;4305664;33;34105;-85
2021/09/11 19:09:51;;;;;;;11.60;3.97;;;;;;;22.32;39.31;99917.16;4305371;33;34274;-86
2021/09/11 19:13:12;;;;;;;7.20;3.33;;;;;;;22.18;38.96;99914.25;4311898;33;34884;-85
2021/09/11 19:18:45;;;;;;;7.70;3.95;;;;;;;22.22;38.90;99926.47;4302875;33;34221;-85
2021/09/11 19:21:39;;;;;;;6.07;3.53;;;;;;;22.11;39.17;99926.94;4302639;33;34436;-86
2021/09/11 19:24:10;;;;;;;9.40;3.95;;;;;;;22.08;39.27;99923.56;4293183;33;34605;-85
2021/09/11 19:27:08;;;;;;;7.97;3.72;;;;;;;21.99;39.27;99923.97;4317848;33;34463;-86
2021/09/11 19:29:39;;;;;;;8.10;3.75;;;;;;;22.01;39.12;99928.25;4293544;33;33501;-87
2021/09/11 19:32:31;;;;;;;;;;;;;;;21.62;46.80;99924.69;4307493;33;34613;-85
2021/09/11 19:35:15;;;;;;;6.80;3.72;;;;;;;21.98;40.79;99925.78;4316457;33;36279;-85
2021/09/11 19:37:45;;;;;;;9.57;3.80;;;;;;;21.99;39.75;99930.13;4304837;33;34583;-86
2021/09/11 19:40:54;;;;;;;8.43;3.20;;;;;;;21.88;39.79;99926.22;4308402;33;34385;-85
2021/09/11 19:43:31;;;;;;;9.85;3.60;;;;;;;21.96;39.32;99924.13;4305232;33;34392;-85
2021/09/11 19:46:12;;;;;;;8.88;3.37;;;;;;;21.87;39.23;99924.53;4305423;33;34361;-86
2021/09/11 19:49:28;;;;;;;7.05;3.60;;;;;;;21.86;39.48;99934.25;4292266;33;34703;-84
2021/09/11 19:51:50;;;;;;;10.95;3.97;;;;;;;21.78;39.19;99930.16;4314876;33;34587;-85
2021/09/11 19:54:21;;;;;;;5.25;3.42;;;;;;;21.71;39.45;99932.22;4304623;33;34761;-85
2021/09/11 19:57:45;;;;;;;;;;;;;;;;;;;;;
2021/09/11 20:00:50;;;;;;;10.20;3.58;;;;;;;21.63;39.06;99934.38;4307881;33;35611;-86
2021/09/11 20:04:05;;;;;;;7.90;3.45;;;;;;;21.59;39.27;99936.28;4304408;33;33659;-86
2021/09/11 20:06:59;;;;;;;7.30;3.53;;;;;;;21.56;39.48;99940.84;4301957;33;34392;-85
2021/09/11 20:09:50;;;;;;;4.90;3.08;;;;;;;21.55;39.19;99936.47;4317637;33;34990;-85
2021/09/11 20:12:49;;;;;;;6.32;3.60;;;;;;;21.56;39.01;99932.91;4317220;33;34605;-85
2021/09/11 20:15:40;;;;;;;5.10;3.12;;;;;;;21.61;39.90;99943.31;4292961;33;36360;-85
2021/09/11 20:18:12;;;;;;;5.97;3.33;;;;;;;21.47;39.68;99939.44;4313284;33;35389;-85
2021/09/11 20:20:42;;;;;;;6.00;3.28;;;;;;;21.30;39.56;99933.16;4317249;33;34267;-86
2021/09/11 20:23:58;;;;;;;6.03;3.08;;;;;;;21.29;39.50;99942.00;4311700;33;34592;-85
2021/09/11 20:27:00;;;;;;;5.43;3.08;;;;;;;21.29;39.90;99945.50;4316583;33;33764;-85
2021/09/11 20:29:56;;;;;;;;;;;;;;;;;;;;;
2021/09/11 20:32:29;;;;;;;5.12;3.55;;;;;;;21.07;40.21;99947.31;4307729;33;35650;-85
2021/09/11 20:35:25;;;;;;;8.18;3.83;;;;;;;21.22;39.86;99948.47;4305806;33;33538;-85
2021/09/11 20:38:11;;;;;;;7.35;3.70;;;;;;;21.15;40.46;99949.63;4295274;33;34600;-85
2021/09/11 20:40:45;;;;;;;8.13;4.30;;;;;;;21.01;40.56;99944.88;4319489;33;34494;-85
2021/09/11 20:43:37;;;;;;;8.85;4.15;;;;;;;20.81;41.03;99950.09;4303858;33;36102;-84
2021/09/11 20:46:11;;;;;;;7.32;3.92;;;;;;;20.86;40.93;99948.13;4319252;33;34682;-85
2021/09/11 20:48:48;;;;;;;5.37;3.78;;;;;;;20.54;41.40;99957.31;4306438;33;33619;-85
2021/09/11 20:51:40;;;;;;;13.93;6.53;;;;;;;20.51;41.53;99957.44;4319262;33;35322;-85
2021/09/11 20:54:23;;;;;;;8.13;4.87;;;;;;;20.73;41.34;99960.97;4306285;33;34384;-85
2021/09/11 20:57:00;;;;;;;7.80;4.78;;;;;;;20.81;41.79;99955.37;4319306;33;35476;-85
2021/09/11 20:59:30;;;;;;;9.10;4.53;;;;;;;20.79;42.36;99958.09;4306076;33;35133;-85
2021/09/11 21:02:35;;;;;;;7.43;4.82;;;;;;;20.62;42.55;99959.66;4307322;33;35054;-85
2021/09/11 21:05:50;;;;;;;13.02;5.25;;;;;;;20.52;42.95;99960.91;4303652;33;35316;-84
2021/09/11 21:08:23;;;;;;;9.90;5.65;;;;;;;20.45;43.31;99957.66;4307311;33;34874;-85
2021/09/11 21:11:15;;;;;;;12.15;6.53;;;;;;;20.18;43.92;99950.75;4307547;33;35057;-85
2021/09/11 21:13:47;;;;;;;9.32;6.93;;;;;;;20.21;43.67;99953.25;4317797;33;35346;-85
2021/09/11 21:16:19;;;;;;;;;;;;;;;20.17;43.53;99951.66;4294671;33;34466;-85
2021/09/11 21:18:51;;;;;;;6.97;5.20;;;;;;;20.18;43.71;99958.66;4316839;33;34605;-85
2021/09/11 21:21:54;;;;;;;15.88;6.32;;;;;;;20.13;43.91;99960.59;4314254;33;33827;-85
2021/09/11 21:24:54;;;;;;;9.98;7.03;;;;;;;20.01;43.80;99955.78;4298738;33;34425;-85
2021/09/11 21:27:28;;;;;;;9.13;6.10;;;;;;;20.12;44.09;99953.59;4294486;33;35045;-85
2021/09/11 21:33:10;;;;;;;6.93;4.10;;;;;;;19.80;44.24;99956.53;4303151;33;33643;-85
2021/09/11 21:35:43;;;;;;;7.50;3.75;;;;;;;19.77;43.81;99956.63;4306576;33;34213;-85
2021/09/11 21:38:35;;;;;;;8.32;4.37;;;;;;;19.76;43.44;99961.03;4307877;33;34488;-85
2021/09/11 21:41:26;;;;;;;9.07;4.00;;;;;;;19.87;43.09;99958.03;4318172;33;34526;-85
2021/09/11 21:43:58;;;;;;;4.82;3.65;;;;;;;19.84;42.89;99958.13;4306315;33;34140;-85
2021/09/11 21:46:38;;;;;;;8.75;3.70;;;;;;;19.82;42.63;99949.41;4306339;33;35144;-85
2021/09/11 21:52:51;;;;;;;6.50;3.50;;;;;;;19.86;42.45;99958.94;4281346;33;33627;-85
2021/09/11 21:55:31;;;;;;;7.90;3.42;;;;;;;19.89;42.26;99962.34;4306167;33;33989;-85
2021/09/11 21:58:02;;;;;;;7.03;3.53;;;;;;;20.03;42.24;99948.66;4305991;33;35235;-85
2021/09/11 22:01:29;;;;;;;10.27;3.25;;;;;;;20.11;42.70;99949.25;4304555;33;36210;-85
2021/09/11 22:03:51;;;;;;;5.72;3.87;;;;;;;19.89;43.28;99946.50;4306742;33;34283;-85
2021/09/11 22:06:44;;;;;;;5.18;3.37;;;;;;;19.91;43.54;99954.38;4307089;33;34260;-85
2021/09/11 22:09:27;;;;;;;5.50;4.10;;;;;;;19.85;44.48;99959.88;4305470;33;33323;-85
2021/09/11 22:12:19;;;;;;;8.27;4.15;;;;;;;19.67;44.30;99955.22;4303383;33;36038;-85
2021/09/11 22:14:55;;;;;;;7.18;4.00;;;;;;;19.52;44.62;99948.69;4305959;33;34694;-85
2021/09/11 22:17:42;;;;;;;6.70;3.62;;;;;;;19.48;44.82;99949.72;4317264;33;34237;-84
2021/09/11 22:20:34;;;;;;;7.47;3.67;;;;;;;19.46;44.68;99952.41;4317172;33;34463;-85
2021/09/11 22:23:13;;;;;;;9.10;3.97;;;;;;;19.42;44.56;99945.50;4318522;33;35126;-85
2021/09/11 22:25:55;;;;;;;5.43;3.22;;;;;;;19.41;44.36;99949.06;4306366;33;35136;-84
2021/09/11 22:28:27;;;;;;;5.90;3.70;;;;;;;19.27;44.56;99953.03;4306109;33;34064;-85
2021/09/11 22:31:35;;;;;;;5.97;3.22;;;;;;;19.21;44.68;99951.47;4305689;33;35217;-85
2021/09/11 22:34:43;;;;;;;8.13;3.80;;;;;;;19.26;44.64;99957.44;4306435;33;35143;-85
2021/09/11 22:37:13;;;;;;;7.72;3.47;;;;;;;19.22;44.95;99958.47;4305581;33;33895;-84
2021/09/11 22:39:47;;;;;;;5.05;3.40;;;;;;;19.18;45.12;99962.13;4305226;33;33957;-85
2021/09/11 22:42:28;;;;;;;5.30;3.53;;;;;;;19.11;45.12;99963.22;4306297;33;34371;-85
2021/09/11 22:45:06;;;;;;;4.22;3.08;;;;;;;19.21;45.19;99961.13;4311559;33;34760;-84
2021/09/11 22:47:39;;;;;;;5.32;3.08;;;;;;;19.12;45.50;99964.94;4291111;33;34286;-85
2021/09/11 22:50:10;;;;;;;4.65;3.33;;;;;;;19.17;45.50;99960.38;4308902;33;34014;-85
2021/09/11 22:52:42;;;;;;;5.57;3.55;;;;;;;19.10;45.39;99966.78;4317244;33;34295;-85
2021/09/11 22:55:49;;;;;;;5.43;3.67;;;;;;;19.11;45.43;99960.56;4316733;33;35120;-85
2021/09/11 22:58:30;;;;;;;6.25;3.55;;;;;;;19.08;45.70;99965.97;4305456;33;34335;-85
2021/09/11 23:01:30;;;;;;;4.78;3.12;;;;;;;19.04;45.89;99953.78;4318885;33;33811;-84
2021/09/11 23:04:10;;;;;;;7.10;3.50;;;;;;;18.84;46.83;99956.19;4320434;33;34254;-84
2021/09/11 23:07:00;;;;;;;6.12;3.35;;;;;;;18.86;46.76;99959.62;4298694;33;33843;-85
2021/09/11 23:09:34;;;;;;;4.35;3.20;;;;;;;18.88;46.46;99958.69;4307790;33;33967;-85
2021/09/11 23:12:19;;;;;;;5.30;3.53;;;;;;;18.71;46.88;99949.56;4321348;33;34601;-85
2021/09/11 23:14:52;;;;;;;4.62;3.53;;;;;;;18.72;46.82;99948.66;4321235;33;34912;-85
2021/09/11 23:17:25;;;;;;;7.40;3.67;;;;;;;18.70;47.27;99955.75;4319853;33;36129;-84
2021/09/11 23:20:20;;;;;;;14.45;3.90;;;;;;;18.61;47.39;99958.69;4329491;33;35430;-84
2021/09/11 23:22:54;;;;;;;5.87;4.20;;;;;;;18.52;47.63;99951.91;4307980;33;33806;-84
2021/09/11 23:25:34;;;;;;;8.23;3.70;;;;;;;18.52;47.45;99953.69;4319583;33;34462;-84
2021/09/11 23:28:17;;;;;;;7.62;4.15;;;;;;;18.51;47.47;99954.59;4307499;33;34458;-85
2021/09/11 23:30:47;;;;;;;6.75;3.60;;;;;;;18.51;47.40;99954.59;4309166;33;34445;-85
2021/09/11 23:33:21;;;;;;;6.30;4.32;;;;;;;18.50;47.25;99950.22;4320362;33;33806;-84
2021/09/11 23:36:17;;;;;;;5.03;3.65;;;;;;;18.48;47.46;99954.66;4316383;33;34367;-85
2021/09/11 23:38:45;;;;;;;4.78;3.83;;;;;;;18.19;47.99;99955.47;4329860;33;34016;-85
2021/09/11 23:41:13;;;;;;;6.57;3.85;;;;;;;18.38;47.62;99954.03;4305438;33;34702;-85
2021/09/11 23:43:41;;;;;;;7.30;3.50;;;;;;;18.43;47.51;99959.16;4316967;33;34310;-85
2021/09/11 23:46:08;;;;;;;6.32;3.70;;;;;;;18.30;47.69;99949.91;4318423;33;34560;-84
2021/09/11 23:48:36;;;;;;;9.95;3.80;;;;;;;18.31;47.80;99954.25;4305783;33;34943;-85
2021/09/11 23:51:04;;;;;;;4.90;3.28;;;;;;;18.34;47.18;99948.91;4305513;33;34213;-85
2021/09/11 23:53:32;;;;;;;8.73;3.67;;;;;;;18.27;47.32;99942.97;4305268;33;33576;-84
2021/09/11 23:56:00;;;;;;;6.07;3.90;;;;;;;18.19;47.39;99945.81;4305569;33;34263;-85
2021/09/11 23:58:27;;;;;;;6.68;3.72;;;;;;;18.27;47.14;99941.22;4320369;33;34800;-85
